Fair Oaks, California
Current Conditions -  °F | °C
As of 2:49 PM on Friday 19 Dec 2014 (Local Time) from KMHR Reporting Station
Light Rain Light Rain  
Wind Chill: 52°   Ceiling: 3000
Heat Index: 52°   Visibility: 4mi
Dew Point: 52°   Wind: 0mph
Humidity: 100%   Direction: NA
Pressure: 30.15"   Gusts: NA
Location:  38.64°N, 121.27°W
Report Text: KMHR 192249Z 00000KT 4SM -RA BR OVC030 11/11 A3015
Loading
Personal Weather Stations






























Interactive Weather Map New forecast layout! Learn more

10-Day Weather Forecast

Advertisements
Track Severe Weather on mobile